createdAt,value
2022-10-17T00:00:59.603Z,101000.53515625
2022-10-17T00:01:59.337Z,101003.6953125
2022-10-17T00:02:59.348Z,101002.171875
2022-10-17T00:04:02.138Z,101004.73046875
2022-10-17T00:04:59.323Z,101006.85546875
2022-10-17T00:05:59.487Z,101010.125
2022-10-17T00:06:59.323Z,101009.84375
2022-10-17T00:07:59.233Z,101010.890625
2022-10-17T00:08:59.126Z,101009.09375
2022-10-17T00:09:59.099Z,101010.1796875
2022-10-17T00:10:59.595Z,101007.40625
2022-10-17T00:11:59.486Z,101010.359375
2022-10-17T00:12:59.222Z,101010.0234375
2022-10-17T00:13:59.244Z,101016.44921875
2022-10-17T00:15:02.452Z,101011.453125
2022-10-17T00:15:59.489Z,101016.41796875
2022-10-17T00:16:59.226Z,101016.25390625
2022-10-17T00:17:59.134Z,101021.54296875
2022-10-17T00:18:59.277Z,101018.7578125
2022-10-17T00:19:59.297Z,101018.62109375
2022-10-17T00:20:59.481Z,101026.61328125
2022-10-17T00:21:59.259Z,101021.10546875
2022-10-17T00:22:59.276Z,101023.16796875
2022-10-17T00:23:59.124Z,101018.984375
2022-10-17T00:24:59.317Z,101024.33203125
2022-10-17T00:26:05.173Z,101025.94921875
2022-10-17T00:26:59.488Z,101026.796875
2022-10-17T00:27:59.194Z,101023.58203125
2022-10-17T00:28:59.328Z,101025.359375
2022-10-17T00:29:59.290Z,101024.71875
2022-10-17T00:30:59.573Z,101023.7734375
2022-10-17T00:31:59.213Z,101025.953125
2022-10-17T00:32:59.142Z,101024.94140625
2022-10-17T00:33:59.237Z,101027.453125
2022-10-17T00:34:59.188Z,101027.79296875
2022-10-17T00:35:59.551Z,101025.05859375
2022-10-17T00:37:02.151Z,101025.5859375
2022-10-17T00:37:59.211Z,101028.55078125
2022-10-17T00:38:59.152Z,101025.19921875
2022-10-17T00:39:59.275Z,101026.4375
2022-10-17T00:40:59.621Z,101023.5625
2022-10-17T00:41:59.548Z,101024.80078125
2022-10-17T00:42:59.197Z,101025.3046875
2022-10-17T00:43:59.209Z,101028.0078125
2022-10-17T00:44:59.203Z,101025.75390625
2022-10-17T00:45:59.555Z,101028.5546875
2022-10-17T00:46:59.331Z,101028.20703125
2022-10-17T00:48:02.155Z,101028.6171875
2022-10-17T00:48:59.193Z,101027.6328125
2022-10-17T00:49:59.264Z,101027.1484375
2022-10-17T00:50:59.594Z,101027.74609375
2022-10-17T00:51:59.273Z,101024.75
2022-10-17T00:52:59.227Z,101031.87109375
2022-10-17T00:53:59.110Z,101034.390625
2022-10-17T00:54:59.111Z,101035.6328125
2022-10-17T00:55:59.552Z,101035.95703125
2022-10-17T00:56:59.486Z,101035.95703125
2022-10-17T00:57:59.180Z,101036.30859375
2022-10-17T00:59:02.209Z,101038.2734375
2022-10-17T00:59:59.252Z,101033.671875
2022-10-17T01:00:59.790Z,101033.74609375
2022-10-17T01:01:59.223Z,101036.4296875
2022-10-17T01:02:59.128Z,101040.62890625
2022-10-17T01:03:59.112Z,101040.90625
2022-10-17T01:04:59.218Z,101043.33203125
2022-10-17T01:05:59.553Z,101045.2578125
2022-10-17T01:06:59.296Z,101042.08203125
2022-10-17T01:07:59.225Z,101043.40625
2022-10-17T01:08:59.132Z,101042.15234375
2022-10-17T01:10:02.262Z,101042.11328125
2022-10-17T01:10:59.489Z,101041.02734375
2022-10-17T01:11:59.490Z,101043.953125
2022-10-17T01:12:59.199Z,101035.5234375
2022-10-17T01:13:59.194Z,101039.37890625
2022-10-17T01:14:59.208Z,101044.28515625
2022-10-17T01:16:05.215Z,101043.08984375
2022-10-17T01:16:59.292Z,101045.46484375
2022-10-17T01:17:59.184Z,101045.73046875
2022-10-17T01:18:59.223Z,101042.51953125
2022-10-17T01:19:59.220Z,101044.98046875
2022-10-17T01:20:59.552Z,101042.87109375
2022-10-17T01:21:59.113Z,101041.875
2022-10-17T01:22:59.149Z,101043.60546875
2022-10-17T01:23:59.212Z,101044.68359375
2022-10-17T01:24:59.132Z,101041.38671875
2022-10-17T01:26:00.550Z,101043.5703125
2022-10-17T01:27:05.207Z,101043.96484375
2022-10-17T01:27:59.299Z,101044.7109375
2022-10-17T01:28:59.185Z,101045.4375
2022-10-17T01:29:59.277Z,101043.1953125
2022-10-17T01:30:59.323Z,101042.578125
2022-10-17T01:31:59.480Z,101043.21875
2022-10-17T01:32:59.210Z,101037.27734375
2022-10-17T01:33:59.267Z,101038.9921875
2022-10-17T01:34:59.302Z,101039.15625
2022-10-17T01:36:03.259Z,101040.640625
2022-10-17T01:36:59.530Z,101039.921875
2022-10-17T01:38:02.112Z,101040.06640625
2022-10-17T01:38:59.302Z,101038.7890625
2022-10-17T01:39:59.228Z,101040
2022-10-17T01:40:59.154Z,101038.94140625
2022-10-17T01:41:59.567Z,101038.515625
2022-10-17T01:42:59.180Z,101038.21484375
2022-10-17T01:43:59.105Z,101036.36328125
2022-10-17T01:44:59.119Z,101036.96484375
2022-10-17T01:45:59.223Z,101038.95703125
2022-10-17T01:46:59.562Z,101037.01171875
2022-10-17T01:47:59.192Z,101036.32421875
2022-10-17T01:49:02.143Z,101037.28125
2022-10-17T01:49:59.217Z,101035.75
2022-10-17T01:50:59.225Z,101031.9609375
2022-10-17T01:51:59.479Z,101033.1875
2022-10-17T01:52:59.302Z,101033.26953125
2022-10-17T01:53:59.120Z,101032.64453125
2022-10-17T01:54:59.210Z,101030.36328125
2022-10-17T01:55:59.236Z,101034.8359375
2022-10-17T01:56:59.483Z,101030.7734375
2022-10-17T01:57:59.288Z,101031.234375
2022-10-17T01:58:59.343Z,101035.39453125
2022-10-17T02:00:02.439Z,101035.171875
2022-10-17T02:00:59.267Z,101033.796875
2022-10-17T02:01:59.596Z,101038.40234375
2022-10-17T02:02:59.290Z,101035.38671875
2022-10-17T02:03:59.241Z,101035.328125
2022-10-17T02:04:59.310Z,101035.23046875
2022-10-17T02:05:59.260Z,101032.0703125
2022-10-17T02:06:59.612Z,101031.953125
2022-10-17T02:07:59.344Z,101034.96875
2022-10-17T02:08:59.193Z,101037.875
2022-10-17T02:09:59.123Z,101034.75390625
2022-10-17T02:11:02.164Z,101033.69140625
2022-10-17T02:11:59.510Z,101036.6796875
2022-10-17T02:12:59.217Z,101030.7109375
2022-10-17T02:13:59.301Z,101031.6484375
2022-10-17T02:14:59.204Z,101031.58203125
2022-10-17T02:15:59.131Z,101033.51953125
2022-10-17T02:16:59.480Z,101033.5078125
2022-10-17T02:17:59.217Z,101034.63671875
2022-10-17T02:18:59.216Z,101036.27734375
2022-10-17T02:19:59.244Z,101034.09375
2022-10-17T02:20:59.308Z,101035.3046875
2022-10-17T02:22:05.169Z,101036.0625
2022-10-17T02:22:59.279Z,101033.7109375
2022-10-17T02:23:59.125Z,101032.125
2022-10-17T02:24:59.214Z,101034.14453125
2022-10-17T02:25:59.227Z,101035.98828125
2022-10-17T02:26:59.555Z,101036.5859375
2022-10-17T02:27:59.133Z,101034.21875
2022-10-17T02:28:59.187Z,101035.55859375
2022-10-17T02:29:59.265Z,101037.61328125
2022-10-17T02:30:59.326Z,101038.24609375
2022-10-17T02:31:59.473Z,101039.79296875
2022-10-17T02:33:02.253Z,101036.64453125
2022-10-17T02:33:59.201Z,101043.76953125
2022-10-17T02:34:59.125Z,101039.31640625
2022-10-17T02:35:59.114Z,101036.71875
2022-10-17T02:36:59.553Z,101037.46875
2022-10-17T02:37:59.198Z,101037.2109375
2022-10-17T02:38:59.258Z,101037.1796875
2022-10-17T02:39:59.260Z,101039.39453125
2022-10-17T02:40:59.259Z,101041.0234375
2022-10-17T02:41:59.638Z,101039.40625
2022-10-17T02:42:59.239Z,101036.29296875
2022-10-17T02:44:02.601Z,101040.80859375
2022-10-17T02:44:59.308Z,101042.72265625
2022-10-17T02:45:59.187Z,101038.8046875
2022-10-17T02:46:59.560Z,101040.140625
2022-10-17T02:47:59.205Z,101043.9296875
2022-10-17T02:48:59.135Z,101044.1640625
2022-10-17T02:49:59.294Z,101047.5703125
2022-10-17T02:50:59.258Z,101042.44140625
2022-10-17T02:51:59.487Z,101049.4375
2022-10-17T02:52:59.301Z,101052.52734375
2022-10-17T02:53:59.194Z,101050.5859375
2022-10-17T02:55:02.176Z,101053.14453125
2022-10-17T02:55:59.193Z,101055.2578125
2022-10-17T02:56:59.148Z,101054.27734375
2022-10-17T02:57:59.270Z,101055.64453125
2022-10-17T02:58:59.205Z,101053.0234375
2022-10-17T02:59:59.142Z,101048.30078125
2022-10-17T03:00:59.218Z,101049.32421875
2022-10-17T03:01:59.557Z,101051.9140625
2022-10-17T03:02:59.215Z,101053.50390625
2022-10-17T03:03:59.118Z,101051.01953125
2022-10-17T03:04:59.231Z,101055.58984375
2022-10-17T03:06:02.157Z,101056.91015625
2022-10-17T03:06:59.483Z,101057.1328125
2022-10-17T03:07:59.226Z,101054.09375
2022-10-17T03:08:59.112Z,101053.0078125
2022-10-17T03:09:59.108Z,101054.8359375
2022-10-17T03:10:59.113Z,101055
2022-10-17T03:11:59.196Z,101050.9765625
2022-10-17T03:12:59.554Z,101054.26953125
2022-10-17T03:13:59.333Z,101054.19921875
2022-10-17T03:14:59.225Z,101053.7890625
2022-10-17T03:15:59.142Z,101057.51171875
2022-10-17T03:17:05.167Z,101055.48046875
2022-10-17T03:17:59.289Z,101054.48046875
2022-10-17T03:18:59.243Z,101058.49609375
2022-10-17T03:19:59.259Z,101059.91015625
2022-10-17T03:20:59.342Z,101056.734375
2022-10-17T03:21:59.524Z,101054.37109375
2022-10-17T03:22:59.217Z,101057.08203125
2022-10-17T03:23:59.100Z,101060.203125
2022-10-17T03:24:59.139Z,101056.17578125
2022-10-17T03:25:59.272Z,101054.6484375
2022-10-17T03:26:59.306Z,101061.1796875
2022-10-17T03:28:05.172Z,101060.19140625
2022-10-17T03:28:59.364Z,101061.71484375
2022-10-17T03:29:59.180Z,101060.08203125
2022-10-17T03:30:59.123Z,101061
2022-10-17T03:31:59.560Z,101066.34375
2022-10-17T03:32:59.197Z,101066.6484375
2022-10-17T03:33:59.229Z,101065.515625
2022-10-17T03:34:59.240Z,101066.76171875
2022-10-17T03:35:59.260Z,101070.890625
2022-10-17T03:36:59.666Z,101070.0625
2022-10-17T03:37:59.211Z,101067.99609375
2022-10-17T03:39:02.156Z,101069.64453125
2022-10-17T03:39:59.220Z,101071.7734375
2022-10-17T03:40:59.158Z,101076.21484375
2022-10-17T03:41:59.569Z,101074.3515625
2022-10-17T03:42:59.797Z,101076.86328125
2022-10-17T03:43:59.299Z,101080.04296875
2022-10-17T03:44:59.247Z,101078.9609375
2022-10-17T03:45:59.216Z,101080.90625
2022-10-17T03:46:59.491Z,101079.60546875
2022-10-17T03:47:59.299Z,101081.6640625
2022-10-17T03:48:59.170Z,101084.140625
2022-10-17T03:50:02.138Z,101080.3515625
2022-10-17T03:50:59.193Z,101081.5703125
2022-10-17T03:51:59.564Z,101082.5390625
2022-10-17T03:52:59.276Z,101090.62109375
2022-10-17T03:53:59.121Z,101085.09375
2022-10-17T03:54:59.221Z,101087.20703125
2022-10-17T03:55:59.163Z,101083.796875
2022-10-17T03:56:59.489Z,101086.10546875
2022-10-17T03:57:59.537Z,101092.1171875
2022-10-17T03:58:59.325Z,101093.41796875
2022-10-17T03:59:59.280Z,101097.16015625
2022-10-17T04:01:02.318Z,101089.1796875
2022-10-17T04:01:59.489Z,101087.58203125
2022-10-17T04:02:59.106Z,101095.54296875
2022-10-17T04:03:59.245Z,101089.4453125
2022-10-17T04:04:59.303Z,101098.51953125
2022-10-17T04:05:59.245Z,101090.12890625
2022-10-17T04:06:59.481Z,101097.44140625
2022-10-17T04:08:02.387Z,101098.85546875
2022-10-17T04:08:59.125Z,101097.03515625
2022-10-17T04:09:59.139Z,101102.6484375
2022-10-17T04:10:59.266Z,101102.2578125
2022-10-17T04:12:02.292Z,101102.80859375
2022-10-17T04:12:59.479Z,101104.7890625
2022-10-17T04:13:59.299Z,101104.4453125
2022-10-17T04:14:59.132Z,101103.4453125
2022-10-17T04:15:59.224Z,101095.1015625
2022-10-17T04:17:00.261Z,101102.33203125
2022-10-17T04:17:59.153Z,101100.5390625
2022-10-17T04:18:59.098Z,101100.62109375
2022-10-17T04:19:59.284Z,101099.09375
2022-10-17T04:20:59.294Z,101103.05859375
2022-10-17T04:21:59.262Z,101102.50390625
2022-10-17T04:23:05.142Z,101099.88671875
2022-10-17T04:23:59.215Z,101099.2578125
2022-10-17T04:24:59.258Z,101100.984375
2022-10-17T04:25:59.172Z,101104.328125
2022-10-17T04:26:59.268Z,101100.40625
2022-10-17T04:27:59.482Z,101099.375
2022-10-17T04:28:59.137Z,101102.6171875
2022-10-17T04:29:59.121Z,101103.53515625
2022-10-17T04:30:59.215Z,101100.2109375
2022-10-17T04:31:59.267Z,101100.609375
2022-10-17T04:32:59.294Z,101100.59375
2022-10-17T04:34:02.191Z,101101.34375
2022-10-17T04:34:59.336Z,101100.15234375
2022-10-17T04:35:59.205Z,101102.9375
2022-10-17T04:36:59.245Z,101102.3359375
2022-10-17T04:37:59.483Z,101100.51953125
2022-10-17T04:38:59.221Z,101100.82421875
2022-10-17T04:39:59.114Z,101102.46875
2022-10-17T04:40:59.125Z,101103.87109375
2022-10-17T04:41:59.115Z,101106.62109375
2022-10-17T04:42:59.590Z,101110.45703125
2022-10-17T04:43:59.218Z,101108.81640625
2022-10-17T04:45:02.407Z,101105.14453125
2022-10-17T04:45:59.289Z,101110.5
2022-10-17T04:46:59.125Z,101114.1328125
2022-10-17T04:47:59.554Z,101110.55859375
2022-10-17T04:48:59.128Z,101112.30078125
2022-10-17T04:49:59.247Z,101110.53125
2022-10-17T04:50:59.225Z,101113.2109375
2022-10-17T04:51:59.304Z,101115.44140625
2022-10-17T04:52:59.244Z,101116.06640625
2022-10-17T04:53:59.547Z,101115.12109375
2022-10-17T04:54:59.207Z,101112.69921875
2022-10-17T04:56:02.264Z,101114.45703125
2022-10-17T04:56:59.198Z,101117.60546875
2022-10-17T04:57:59.579Z,101113.1484375
2022-10-17T04:58:59.321Z,101112.65625
2022-10-17T04:59:59.370Z,101111.6796875
2022-10-17T05:00:59.304Z,101112.8125
2022-10-17T05:01:59.255Z,101115.27734375
2022-10-17T05:02:59.533Z,101112.17578125
2022-10-17T05:03:59.204Z,101114.2734375
2022-10-17T05:04:59.122Z,101113.98046875
2022-10-17T05:05:59.225Z,101116.32421875
2022-10-17T05:07:02.126Z,101113.859375
2022-10-17T05:07:59.494Z,101119.3984375
2022-10-17T05:08:59.294Z,101117.765625
2022-10-17T05:09:59.296Z,101123.96484375
2022-10-17T05:12:09.492Z,101128.56640625
2022-10-17T05:13:06.561Z,101130.12109375
2022-10-17T05:14:06.667Z,101131.48828125
2022-10-17T05:15:06.630Z,101132.578125
2022-10-17T05:16:06.554Z,101130.76953125
2022-10-17T05:17:09.568Z,101139.359375
2022-10-17T05:18:06.801Z,101136.75390625
2022-10-17T05:19:06.603Z,101134.6875
2022-10-17T05:20:06.570Z,101131.1796875
2022-10-17T05:21:06.522Z,101133.53515625
2022-10-17T05:22:06.554Z,101132.87890625
2022-10-17T05:23:06.808Z,101133.58203125
2022-10-17T05:24:06.445Z,101133.6484375
2022-10-17T05:25:06.453Z,101133.06640625
2022-10-17T05:26:06.435Z,101132.546875
2022-10-17T05:27:06.427Z,101132.859375
2022-10-17T05:28:09.583Z,101132.1015625
2022-10-17T05:29:06.691Z,101131.22265625
2022-10-17T05:30:06.489Z,101132.05078125
2022-10-17T05:31:06.558Z,101128.96875
2022-10-17T05:32:06.574Z,101126.03125
2022-10-17T05:33:06.803Z,101125.90625
2022-10-17T05:34:09.052Z,101127.24609375
2022-10-17T05:35:06.530Z,101128.49609375
2022-10-17T05:36:06.511Z,101130.8046875
2022-10-17T05:37:06.491Z,101136.328125
2022-10-17T05:38:06.877Z,101133.578125
2022-10-17T05:39:09.560Z,101133.0859375
2022-10-17T05:40:06.512Z,101130.77734375
2022-10-17T05:41:06.449Z,101132.88671875
2022-10-17T05:42:06.436Z,101134.4609375
2022-10-17T05:43:07.020Z,101134.6875
2022-10-17T05:44:06.651Z,101138.7265625
2022-10-17T05:45:06.412Z,101137.92578125
2022-10-17T05:46:06.426Z,101136.43359375
2022-10-17T05:47:06.533Z,101139.60546875
2022-10-17T05:48:06.901Z,101137.20703125
2022-10-17T05:49:15.085Z,101138.6640625
2022-10-17T05:50:09.500Z,101135.1796875
2022-10-17T05:51:06.601Z,101135.2265625
2022-10-17T05:52:06.506Z,101133.57421875
2022-10-17T05:53:06.864Z,101135.66015625
2022-10-17T05:54:06.483Z,101137.6484375
2022-10-17T05:55:06.533Z,101136.3125
2022-10-17T05:56:06.542Z,101142.30078125
2022-10-17T05:57:06.436Z,101134.8828125
2022-10-17T05:58:06.467Z,101138.45703125
2022-10-17T05:59:06.574Z,101139.44140625
2022-10-17T06:00:06.576Z,101138.8046875
2022-10-17T06:01:12.075Z,101141.4453125
2022-10-17T06:02:06.598Z,101138.1796875
2022-10-17T06:03:06.868Z,101136.5390625
2022-10-17T06:04:06.496Z,101136.74609375
2022-10-17T06:05:06.438Z,101140
2022-10-17T06:06:06.443Z,101140.8125
2022-10-17T06:07:06.428Z,101142.74609375
2022-10-17T06:08:06.800Z,101146.62890625
2022-10-17T06:09:06.617Z,101144.7734375
2022-10-17T06:10:06.488Z,101144.234375
2022-10-17T06:11:09.275Z,101145.52734375
2022-10-17T06:12:09.417Z,101152.34765625
2022-10-17T06:13:06.858Z,101147.3046875
2022-10-17T06:14:06.525Z,101151.0703125
2022-10-17T06:15:06.409Z,101156.90234375
2022-10-17T06:16:06.431Z,101156.77734375
2022-10-17T06:17:06.454Z,101152.30078125
2022-10-17T06:18:06.791Z,101155.6875
2022-10-17T06:19:06.439Z,101157.12109375
2022-10-17T06:20:06.500Z,101159.0625
2022-10-17T06:21:06.500Z,101160.65234375
2022-10-17T06:22:06.453Z,101161.6796875
2022-10-17T06:23:12.571Z,101161.9140625
2022-10-17T06:24:06.537Z,101162.24609375
2022-10-17T06:25:06.528Z,101161.6328125
2022-10-17T06:26:06.649Z,101157.98828125
2022-10-17T06:27:10.931Z,101163.80859375
2022-10-17T06:28:06.802Z,101164.56640625
2022-10-17T06:29:06.502Z,101161.48828125
2022-10-17T06:30:06.506Z,101165.4609375
2022-10-17T06:31:06.594Z,101162.0390625
2022-10-17T06:32:08.610Z,101160.3515625
2022-10-17T06:33:06.867Z,101162.53515625
2022-10-17T06:34:09.546Z,101162.27734375
2022-10-17T06:35:06.554Z,101163.75390625
2022-10-17T06:36:06.483Z,101165.83984375
2022-10-17T06:37:06.497Z,101166.57421875
2022-10-17T06:38:06.868Z,101168.3203125
2022-10-17T06:39:06.599Z,101167.6328125
2022-10-17T06:40:06.560Z,101168.94140625
2022-10-17T06:41:06.601Z,101167.46875
2022-10-17T06:42:06.612Z,101167.4453125
2022-10-17T06:43:07.001Z,101166.25
2022-10-17T06:44:06.588Z,101166.32421875
2022-10-17T06:45:09.624Z,101169.12109375
2022-10-17T06:46:06.554Z,101170.00390625
2022-10-17T06:47:06.437Z,101168.50390625
2022-10-17T06:48:06.784Z,101170.70703125
2022-10-17T06:49:06.489Z,101175.33984375
2022-10-17T06:50:06.505Z,101172.2890625
2022-10-17T06:51:08.261Z,101170.7578125
2022-10-17T06:52:06.426Z,101171.59765625
2022-10-17T06:53:06.872Z,101174.34375
2022-10-17T06:54:06.502Z,101175.92578125
2022-10-17T06:55:06.435Z,101180.3125
2022-10-17T06:56:09.597Z,101177.13671875
2022-10-17T06:57:06.612Z,101176.015625
2022-10-17T06:58:06.805Z,101179.0234375
2022-10-17T06:59:06.635Z,101177.8359375
2022-10-17T07:00:06.415Z,101183.85546875
2022-10-17T07:01:06.606Z,101189.48828125
2022-10-17T07:02:06.548Z,101188.3359375
2022-10-17T07:03:07.146Z,101188.08984375
2022-10-17T07:04:06.574Z,101187.65234375
2022-10-17T07:05:06.547Z,101191.35546875
2022-10-17T07:06:06.520Z,101193.38671875
2022-10-17T07:07:09.492Z,101191.7265625
2022-10-17T07:08:06.798Z,101188.4296875
2022-10-17T07:09:06.653Z,101186.78515625
2022-10-17T07:10:06.620Z,101186.87109375
2022-10-17T07:11:06.464Z,101180.8125
2022-10-17T07:12:06.437Z,101184.296875
2022-10-17T07:13:06.809Z,101189.32421875
2022-10-17T07:14:06.476Z,101186.91015625
2022-10-17T07:15:06.508Z,101191.59375
2022-10-17T07:16:06.568Z,101193.3203125
2022-10-17T07:17:06.585Z,101192.87109375
2022-10-17T07:18:12.460Z,101190.63671875
2022-10-17T07:19:06.600Z,101194.28515625
2022-10-17T07:20:06.408Z,101190.875
2022-10-17T07:21:06.535Z,101190.54296875
2022-10-17T07:22:06.433Z,101193.12109375
2022-10-17T07:23:06.916Z,101191.82421875
2022-10-17T07:24:06.573Z,101187.296875
2022-10-17T07:25:06.430Z,101191.0703125
2022-10-17T07:26:06.560Z,101197.08984375
2022-10-17T07:27:06.618Z,101197.1484375
2022-10-17T07:28:06.918Z,101198.73828125
2022-10-17T07:29:09.641Z,101203.046875
2022-10-17T07:30:06.481Z,101204.796875
2022-10-17T07:31:06.539Z,101210.5625
2022-10-17T07:32:06.577Z,101210.76953125
2022-10-17T07:33:06.924Z,101211.14453125
2022-10-17T07:34:06.531Z,101210.5
2022-10-17T07:35:06.524Z,101213.66015625
2022-10-17T07:36:06.541Z,101213.671875
2022-10-17T07:37:06.436Z,101211.37109375
2022-10-17T07:38:06.792Z,101209.9453125
2022-10-17T07:39:06.536Z,101209.4296875
2022-10-17T07:40:11.901Z,101207.06640625
2022-10-17T07:41:06.538Z,101211.09375
2022-10-17T07:42:06.448Z,101213.64453125
2022-10-17T07:43:06.924Z,101217.0234375
2022-10-17T07:44:06.511Z,101218.6171875
2022-10-17T07:45:06.500Z,101215.80078125
2022-10-17T07:46:06.558Z,101217.359375
2022-10-17T07:47:06.529Z,101220.8125
2022-10-17T07:48:06.791Z,101221.6171875
2022-10-17T07:49:06.595Z,101220.91015625
2022-10-17T07:50:06.501Z,101222.48046875
2022-10-17T07:51:09.502Z,101220.3515625
2022-10-17T07:52:06.634Z,101220.72265625
2022-10-17T07:53:06.872Z,101223.3125
2022-10-17T07:54:06.527Z,101221.5390625
2022-10-17T07:55:06.566Z,101223.93359375
2022-10-17T07:56:06.536Z,101224.203125
2022-10-17T07:57:06.426Z,101224.8203125
2022-10-17T07:58:06.869Z,101230.50390625
2022-10-17T07:59:09.195Z,101225.2578125
2022-10-17T08:00:06.418Z,101225.64453125
2022-10-17T08:01:08.351Z,101221.515625
2022-10-17T08:02:09.470Z,101219.8125
2022-10-17T08:03:06.816Z,101221.67578125
2022-10-17T08:04:06.648Z,101219.60546875
2022-10-17T08:05:06.647Z,101223.6640625
2022-10-17T08:06:06.504Z,101217.80859375
2022-10-17T08:07:19.117Z,101219.140625
2022-10-17T08:08:06.799Z,101221.125
2022-10-17T08:09:06.435Z,101222.2109375
2022-10-17T08:10:06.584Z,101215.3984375
2022-10-17T08:11:06.611Z,101218.69140625
2022-10-17T08:12:06.490Z,101219.0390625
2022-10-17T08:13:12.474Z,101224.25
2022-10-17T08:14:06.530Z,101222.22265625
2022-10-17T08:15:06.410Z,101213.625
2022-10-17T08:16:06.424Z,101214.0078125
2022-10-17T08:17:06.431Z,101212.8046875
2022-10-17T08:18:06.874Z,101207.87109375
2022-10-17T08:19:06.435Z,101203.92578125
2022-10-17T08:20:06.448Z,101205.1875
2022-10-17T08:21:06.446Z,101200.96484375
2022-10-17T08:22:06.532Z,101200.4375
2022-10-17T08:23:06.872Z,101204.85546875
2022-10-17T08:24:09.441Z,101210.26171875
2022-10-17T08:25:06.528Z,101208.9453125
2022-10-17T08:26:06.442Z,101206.82421875
2022-10-17T08:27:06.444Z,101213.15625
2022-10-17T08:29:14.825Z,101208.75
2022-10-17T08:30:14.765Z,101210.23046875
2022-10-17T08:31:14.848Z,101212.0234375
2022-10-17T08:32:14.972Z,101208.67578125
2022-10-17T08:33:15.115Z,101208.59375
2022-10-17T08:34:17.917Z,101212.50390625
2022-10-17T08:35:14.973Z,101215.8359375
2022-10-17T08:36:14.981Z,101217.1171875
2022-10-17T08:37:14.919Z,101222.5859375
2022-10-17T08:38:16.821Z,101226.37109375
2022-10-17T08:39:14.840Z,101226.66015625
2022-10-17T08:40:14.757Z,101228.90234375
2022-10-17T08:41:14.750Z,101225.30859375
2022-10-17T08:42:14.824Z,101226.7578125
2022-10-17T08:43:15.113Z,101225.91015625
2022-10-17T08:44:14.854Z,101226.01171875
2022-10-17T08:45:17.797Z,101227.8671875
2022-10-17T08:47:22.675Z,101223.515625
2022-10-17T08:48:23.034Z,101221.6015625
2022-10-17T08:49:22.702Z,101222.84375
2022-10-17T08:50:22.705Z,101226.5
2022-10-17T08:51:22.685Z,101222.12109375
2022-10-17T08:52:25.676Z,101220.91015625
2022-10-17T08:53:22.955Z,101217.2421875
2022-10-17T08:54:22.798Z,101219.87890625
2022-10-17T08:55:22.660Z,101215.37890625
2022-10-17T08:56:25.151Z,101215.31640625
2022-10-17T08:57:22.736Z,101217.578125
2022-10-17T08:58:22.998Z,101213.74609375
2022-10-17T08:59:22.572Z,101210.84375
2022-10-17T09:00:22.731Z,101215.09765625
2022-10-17T09:01:22.694Z,101218.1953125
2022-10-17T09:02:22.668Z,101216.18359375
2022-10-17T09:03:28.767Z,101212.9375
2022-10-17T09:04:22.820Z,101212.36328125
2022-10-17T09:05:26.359Z,101212.1796875
2022-10-17T09:06:22.593Z,101209.16796875
2022-10-17T09:07:22.673Z,101208.89453125
2022-10-17T09:08:23.266Z,101211.109375
2022-10-17T09:09:22.576Z,101210.921875
2022-10-17T09:10:22.581Z,101206.203125
2022-10-17T09:11:22.669Z,101200.4296875
2022-10-17T09:12:22.683Z,101203.953125
2022-10-17T09:13:23.055Z,101210.5078125
2022-10-17T09:14:25.787Z,101206.3515625
2022-10-17T09:15:22.677Z,101206.54296875
2022-10-17T09:16:22.694Z,101213.63671875
2022-10-17T09:17:22.743Z,101216.5703125
2022-10-17T09:18:22.949Z,101216.71875
2022-10-17T09:19:22.699Z,101221.15234375
2022-10-17T09:20:22.592Z,101218.68359375
2022-10-17T09:21:22.583Z,101222.23828125
2022-10-17T09:22:22.596Z,101223.5
2022-10-17T09:23:22.713Z,101224.34375
2022-10-17T09:24:22.713Z,101226.31640625
2022-10-17T09:25:25.728Z,101228.2109375
2022-10-17T09:26:22.772Z,101226.36328125
2022-10-17T09:27:22.617Z,101232.18359375
2022-10-17T09:28:23.103Z,101234.20703125
2022-10-17T09:29:22.744Z,101228.59375
2022-10-17T09:30:43.603Z,101231.57421875
2022-10-17T09:31:22.659Z,101228.9921875
2022-10-17T09:32:22.589Z,101233.8671875
2022-10-17T09:33:35.184Z,101231.00390625
2022-10-17T09:34:25.261Z,101233.62890625
2022-10-17T09:35:22.589Z,101230.9765625
2022-10-17T09:36:25.602Z,101234.5625
2022-10-17T09:37:22.684Z,101233.46875
2022-10-17T09:38:23.024Z,101232.234375
2022-10-17T09:39:22.764Z,101231.203125
2022-10-17T09:40:22.696Z,101229.42578125
2022-10-17T09:41:43.466Z,101229.0703125
2022-10-17T09:42:22.703Z,101228.8359375
2022-10-17T09:43:23.016Z,101231.0703125
2022-10-17T09:44:22.749Z,101232.71875
2022-10-17T09:45:22.734Z,101231.7421875
2022-10-17T09:46:22.763Z,101234.73046875
2022-10-17T09:47:25.718Z,101232.19140625
2022-10-17T09:48:22.951Z,101234.72265625
2022-10-17T09:49:22.775Z,101232.2578125
2022-10-17T09:50:22.591Z,101230.6484375
2022-10-17T09:51:26.074Z,101227.88671875
2022-10-17T09:52:22.749Z,101232.52734375
2022-10-17T09:53:22.942Z,101238
2022-10-17T09:54:22.583Z,101234.9765625
2022-10-17T09:55:22.593Z,101230.45703125
2022-10-17T09:56:22.590Z,101235.4375
2022-10-17T09:57:22.611Z,101238.58984375
2022-10-17T09:58:28.675Z,101237.8125
2022-10-17T09:59:22.674Z,101235.24609375
2022-10-17T10:00:22.606Z,101237.41796875
2022-10-17T10:01:24.158Z,101239.546875
2022-10-17T10:02:22.702Z,101242.35546875
2022-10-17T10:03:22.949Z,101243.02734375